sensor_id;sensor_type;location;lat;lon;timestamp;pressure;altitude;pressure_sealevel;temperature;humidity
8717;BME280;4395;48.554;8.820;2022-09-03T00:02:12;95535.84;;;19.28;92.79
8717;BME280;4395;48.554;8.820;2022-09-03T00:04:21;95288.34;;;17.20;95.11
8717;BME280;4395;48.554;8.820;2022-09-03T00:06:31;95553.22;;;19.01;93.80
8717;BME280;4395;48.554;8.820;2022-09-03T00:08:43;95539.66;;;19.18;93.56
8717;BME280;4395;48.554;8.820;2022-09-03T00:10:52;95527.19;;;19.26;93.58
8717;BME280;4395;48.554;8.820;2022-09-03T00:13:00;95538.81;;;19.01;94.03
8717;BME280;4395;48.554;8.820;2022-09-03T00:15:06;95532.50;;;19.31;95.75
8717;BME280;4395;48.554;8.820;2022-09-03T00:17:13;95528.00;;;19.26;96.13
8717;BME280;4395;48.554;8.820;2022-09-03T00:19:21;95527.84;;;19.23;95.89
8717;BME280;4395;48.554;8.820;2022-09-03T00:21:34;95524.00;;;19.24;95.83
8717;BME280;4395;48.554;8.820;2022-09-03T00:23:43;95536.50;;;19.25;95.44
8717;BME280;4395;48.554;8.820;2022-09-03T00:25:51;95530.56;;;19.23;95.50
8717;BME280;4395;48.554;8.820;2022-09-03T00:27:56;95573.34;;;19.22;95.96
8717;BME280;4395;48.554;8.820;2022-09-03T00:30:03;95532.75;;;19.12;96.41
8717;BME280;4395;48.554;8.820;2022-09-03T00:32:09;95358.97;;;17.87;96.06
8717;BME280;4395;48.554;8.820;2022-09-03T00:34:20;95539.56;;;18.92;97.57
8717;BME280;4395;48.554;8.820;2022-09-03T00:36:31;95540.06;;;18.63;99.80
8717;BME280;4395;48.554;8.820;2022-09-03T00:38:36;95539.50;;;18.53;100.00
8717;BME280;4395;48.554;8.820;2022-09-03T00:40:57;95436.72;;;17.96;100.00
8717;BME280;4395;48.554;8.820;2022-09-03T00:43:09;95542.84;;;18.72;98.15
8717;BME280;4395;48.554;8.820;2022-09-03T00:45:31;95557.88;;;18.25;99.78
8717;BME280;4395;48.554;8.820;2022-09-03T00:47:46;95331.56;;;17.30;98.65
8717;BME280;4395;48.554;8.820;2022-09-03T00:49:58;95538.28;;;18.37;100.00
8717;BME280;4395;48.554;8.820;2022-09-03T00:52:13;95535.25;;;18.38;100.00
8717;BME280;4395;48.554;8.820;2022-09-03T00:54:28;95530.34;;;18.49;97.88
8717;BME280;4395;48.554;8.820;2022-09-03T00:56:40;95518.72;;;18.57;97.36
8717;BME280;4395;48.554;8.820;2022-09-03T00:58:55;95521.44;;;18.57;96.59
8717;BME280;4395;48.554;8.820;2022-09-03T01:01:09;95528.75;;;18.48;96.47
8717;BME280;4395;48.554;8.820;2022-09-03T01:03:21;95526.03;;;18.48;95.53
8717;BME280;4395;48.554;8.820;2022-09-03T01:05:41;95370.06;;;17.54;95.60
8717;BME280;4395;48.554;8.820;2022-09-03T01:07:53;95406.53;;;17.76;95.90
8717;BME280;4395;48.554;8.820;2022-09-03T01:10:11;95388.34;;;17.62;95.69
8717;BME280;4395;48.554;8.820;2022-09-03T01:12:25;95313.91;;;17.19;95.13
8717;BME280;4395;48.554;8.820;2022-09-03T01:14:41;95518.41;;;18.58;95.38
8717;BME280;4395;48.554;8.820;2022-09-03T01:16:50;95447.84;;;17.86;95.57
8717;BME280;4395;48.554;8.820;2022-09-03T01:19:03;95527.88;;;18.39;95.00
8717;BME280;4395;48.554;8.820;2022-09-03T01:21:30;95525.66;;;18.41;95.39
8717;BME280;4395;48.554;8.820;2022-09-03T01:23:47;95520.72;;;18.43;98.21
8717;BME280;4395;48.554;8.820;2022-09-03T01:26:05;95379.91;;;17.06;99.59
8717;BME280;4395;48.554;8.820;2022-09-03T01:28:22;95533.59;;;18.28;99.93
8717;BME280;4395;48.554;8.820;2022-09-03T01:30:37;95522.09;;;18.31;99.64
8717;BME280;4395;48.554;8.820;2022-09-03T01:32:45;95532.16;;;18.31;100.00
8717;BME280;4395;48.554;8.820;2022-09-03T01:34:58;95541.59;;;18.11;100.00
8717;BME280;4395;48.554;8.820;2022-09-03T01:37:08;95635.59;;;17.90;100.00
8717;BME280;4395;48.554;8.820;2022-09-03T01:39:20;95362.97;;;17.22;100.00
8717;BME280;4395;48.554;8.820;2022-09-03T01:41:35;95356.03;;;17.16;100.00
8717;BME280;4395;48.554;8.820;2022-09-03T01:44:02;95536.03;;;18.16;100.00
8717;BME280;4395;48.554;8.820;2022-09-03T01:46:16;95547.31;;;18.23;100.00
8717;BME280;4395;48.554;8.820;2022-09-03T01:48:39;95087.41;;;15.36;100.00
8717;BME280;4395;48.554;8.820;2022-09-03T01:50:46;95539.75;;;18.20;100.00
8717;BME280;4395;48.554;8.820;2022-09-03T01:52:55;95352.22;;;16.81;100.00
8717;BME280;4395;48.554;8.820;2022-09-03T01:55:08;95535.53;;;18.14;100.00
8717;BME280;4395;48.554;8.820;2022-09-03T01:57:38;95401.81;;;17.09;100.00
8717;BME280;4395;48.554;8.820;2022-09-03T01:59:49;95549.00;;;18.19;100.00
8717;BME280;4395;48.554;8.820;2022-09-03T02:02:00;95542.50;;;18.20;100.00
8717;BME280;4395;48.554;8.820;2022-09-03T02:04:14;95542.50;;;18.20;100.00
8717;BME280;4395;48.554;8.820;2022-09-03T02:06:19;95534.91;;;18.17;100.00
8717;BME280;4395;48.554;8.820;2022-09-03T02:08:22;95532.09;;;18.22;100.00
8717;BME280;4395;48.554;8.820;2022-09-03T02:10:28;95537.72;;;18.26;100.00
8717;BME280;4395;48.554;8.820;2022-09-03T02:12:35;95526.66;;;18.22;100.00
8717;BME280;4395;48.554;8.820;2022-09-03T02:14:39;95531.81;;;18.10;100.00
8717;BME280;4395;48.554;8.820;2022-09-03T02:16:43;95150.38;;;15.55;100.00
8717;BME280;4395;48.554;8.820;2022-09-03T02:18:49;95479.19;;;17.84;100.00
8717;BME280;4395;48.554;8.820;2022-09-03T02:20:53;95367.22;;;17.15;100.00
8717;BME280;4395;48.554;8.820;2022-09-03T02:22:58;95533.75;;;18.10;100.00
8717;BME280;4395;48.554;8.820;2022-09-03T02:25:01;95264.38;;;16.27;100.00
8717;BME280;4395;48.554;8.820;2022-09-03T02:27:04;95525.50;;;18.01;100.00
8717;BME280;4395;48.554;8.820;2022-09-03T02:29:07;95520.69;;;17.98;100.00
8717;BME280;4395;48.554;8.820;2022-09-03T02:31:10;95462.22;;;17.64;100.00
8717;BME280;4395;48.554;8.820;2022-09-03T02:33:15;95549.25;;;18.09;100.00
8717;BME280;4395;48.554;8.820;2022-09-03T02:35:18;95537.75;;;18.12;100.00
8717;BME280;4395;48.554;8.820;2022-09-03T02:37:21;95536.94;;;18.12;100.00
8717;BME280;4395;48.554;8.820;2022-09-03T02:39:24;95542.88;;;18.14;100.00
8717;BME280;4395;48.554;8.820;2022-09-03T02:41:29;95549.75;;;18.11;100.00
8717;BME280;4395;48.554;8.820;2022-09-03T02:43:36;94646.72;;;12.10;100.00
8717;BME280;4395;48.554;8.820;2022-09-03T02:45:44;95436.66;;;17.29;100.00
8717;BME280;4395;48.554;8.820;2022-09-03T02:47:50;95546.03;;;18.07;100.00
8717;BME280;4395;48.554;8.820;2022-09-03T02:49:57;95547.25;;;18.01;100.00
8717;BME280;4395;48.554;8.820;2022-09-03T02:52:01;95541.06;;;17.87;100.00
8717;BME280;4395;48.554;8.820;2022-09-03T02:54:07;95472.75;;;17.30;100.00
8717;BME280;4395;48.554;8.820;2022-09-03T02:56:11;95546.44;;;17.64;100.00
8717;BME280;4395;48.554;8.820;2022-09-03T02:58:14;95574.72;;;17.63;100.00
8717;BME280;4395;48.554;8.820;2022-09-03T03:00:17;95549.75;;;17.75;100.00
8717;BME280;4395;48.554;8.820;2022-09-03T03:02:20;95545.13;;;17.76;100.00
8717;BME280;4395;48.554;8.820;2022-09-03T03:04:23;95263.19;;;15.79;100.00
8717;BME280;4395;48.554;8.820;2022-09-03T03:06:27;95550.56;;;17.62;100.00
8717;BME280;4395;48.554;8.820;2022-09-03T03:08:30;95282.56;;;15.72;100.00
8717;BME280;4395;48.554;8.820;2022-09-03T03:10:35;95540.63;;;17.71;100.00
8717;BME280;4395;48.554;8.820;2022-09-03T03:12:38;95548.34;;;17.64;100.00
8717;BME280;4395;48.554;8.820;2022-09-03T03:14:41;95540.00;;;17.60;100.00
8717;BME280;4395;48.554;8.820;2022-09-03T03:16:44;95366.41;;;16.51;100.00
8717;BME280;4395;48.554;8.820;2022-09-03T03:18:47;95636.22;;;17.59;100.00
8717;BME280;4395;48.554;8.820;2022-09-03T03:20:50;95292.31;;;16.00;100.00
8717;BME280;4395;48.554;8.820;2022-09-03T03:22:54;95540.31;;;17.59;100.00
8717;BME280;4395;48.554;8.820;2022-09-03T03:24:57;95544.94;;;17.58;100.00
8717;BME280;4395;48.554;8.820;2022-09-03T03:27:00;95543.03;;;17.59;100.00
8717;BME280;4395;48.554;8.820;2022-09-03T03:29:13;95541.13;;;17.59;100.00
8717;BME280;4395;48.554;8.820;2022-09-03T03:31:19;95544.44;;;17.56;100.00
8717;BME280;4395;48.554;8.820;2022-09-03T03:33:22;95554.69;;;17.59;100.00
8717;BME280;4395;48.554;8.820;2022-09-03T03:35:25;95549.75;;;17.61;100.00
8717;BME280;4395;48.554;8.820;2022-09-03T03:37:29;95560.03;;;17.64;100.00
8717;BME280;4395;48.554;8.820;2022-09-03T03:39:34;95097.28;;;14.72;100.00
8717;BME280;4395;48.554;8.820;2022-09-03T03:41:37;95554.88;;;17.63;100.00
8717;BME280;4395;48.554;8.820;2022-09-03T03:43:41;95557.03;;;17.66;100.00
8717;BME280;4395;48.554;8.820;2022-09-03T03:45:55;95554.09;;;17.62;100.00
8717;BME280;4395;48.554;8.820;2022-09-03T03:47:58;95533.72;;;17.24;100.00
8717;BME280;4395;48.554;8.820;2022-09-03T03:50:02;95422.75;;;16.54;100.00
8717;BME280;4395;48.554;8.820;2022-09-03T03:52:05;95567.47;;;17.59;100.00
8717;BME280;4395;48.554;8.820;2022-09-03T03:54:08;95576.66;;;17.49;100.00
8717;BME280;4395;48.554;8.820;2022-09-03T03:56:16;95569.09;;;17.46;100.00
8717;BME280;4395;48.554;8.820;2022-09-03T03:58:19;95572.94;;;17.45;100.00
8717;BME280;4395;48.554;8.820;2022-09-03T04:00:22;95563.28;;;17.39;100.00
8717;BME280;4395;48.554;8.820;2022-09-03T04:02:25;95570.94;;;17.37;100.00
8717;BME280;4395;48.554;8.820;2022-09-03T04:04:28;95559.88;;;17.33;100.00
8717;BME280;4395;48.554;8.820;2022-09-03T04:06:31;95564.69;;;17.36;100.00
8717;BME280;4395;48.554;8.820;2022-09-03T04:08:35;95559.25;;;17.23;100.00
8717;BME280;4395;48.554;8.820;2022-09-03T04:10:38;95555.72;;;16.81;100.00
8717;BME280;4395;48.554;8.820;2022-09-03T04:12:42;95441.09;;;16.16;100.00
8717;BME280;4395;48.554;8.820;2022-09-03T04:14:45;95311.69;;;15.29;100.00
8717;BME280;4395;48.554;8.820;2022-09-03T04:16:48;95043.03;;;13.66;100.00
8717;BME280;4395;48.554;8.820;2022-09-03T04:18:53;95559.66;;;17.02;100.00
8717;BME280;4395;48.554;8.820;2022-09-03T04:21:00;95555.94;;;16.98;100.00
8717;BME280;4395;48.554;8.820;2022-09-03T04:23:05;95558.34;;;17.00;100.00
8717;BME280;4395;48.554;8.820;2022-09-03T04:25:08;95541.91;;;16.64;100.00
8717;BME280;4395;48.554;8.820;2022-09-03T04:27:11;95241.06;;;15.11;100.00
8717;BME280;4395;48.554;8.820;2022-09-03T04:29:16;95541.78;;;17.15;100.00
8717;BME280;4395;48.554;8.820;2022-09-03T04:31:20;95546.59;;;17.18;100.00
8717;BME280;4395;48.554;8.820;2022-09-03T04:33:24;95226.59;;;15.02;100.00
8717;BME280;4395;48.554;8.820;2022-09-03T04:35:26;95412.41;;;16.42;100.00
8717;BME280;4395;48.554;8.820;2022-09-03T04:37:31;94956.00;;;13.55;100.00
8717;BME280;4395;48.554;8.820;2022-09-03T04:39:34;95553.03;;;17.36;100.00
8717;BME280;4395;48.554;8.820;2022-09-03T04:41:38;95555.63;;;17.41;100.00
8717;BME280;4395;48.554;8.820;2022-09-03T04:43:41;95554.22;;;17.44;100.00
8717;BME280;4395;48.554;8.820;2022-09-03T04:45:49;95558.75;;;17.48;100.00
8717;BME280;4395;48.554;8.820;2022-09-03T04:47:56;95506.56;;;17.24;100.00
8717;BME280;4395;48.554;8.820;2022-09-03T04:49:59;95566.66;;;17.58;100.00
8717;BME280;4395;48.554;8.820;2022-09-03T04:52:02;95556.00;;;17.62;100.00
8717;BME280;4395;48.554;8.820;2022-09-03T04:54:05;95191.56;;;15.25;100.00
8717;BME280;4395;48.554;8.820;2022-09-03T04:56:14;95562.03;;;17.73;100.00
8717;BME280;4395;48.554;8.820;2022-09-03T04:58:17;95565.25;;;17.61;100.00
8717;BME280;4395;48.554;8.820;2022-09-03T05:00:23;95489.38;;;17.15;100.00
8717;BME280;4395;48.554;8.820;2022-09-03T05:02:27;95569.88;;;17.60;100.00
8717;BME280;4395;48.554;8.820;2022-09-03T05:04:30;95557.81;;;17.53;100.00
8717;BME280;4395;48.554;8.820;2022-09-03T05:06:34;95569.00;;;17.51;100.00
8717;BME280;4395;48.554;8.820;2022-09-03T05:08:38;95565.66;;;17.54;100.00
8717;BME280;4395;48.554;8.820;2022-09-03T05:10:40;95569.50;;;17.53;100.00
8717;BME280;4395;48.554;8.820;2022-09-03T05:12:43;95236.31;;;15.50;100.00
8717;BME280;4395;48.554;8.820;2022-09-03T05:14:46;95558.53;;;17.58;100.00
8717;BME280;4395;48.554;8.820;2022-09-03T05:16:49;95460.94;;;16.98;100.00
8717;BME280;4395;48.554;8.820;2022-09-03T05:18:56;95572.72;;;17.69;100.00
8717;BME280;4395;48.554;8.820;2022-09-03T05:21:02;95562.25;;;17.76;100.00
8717;BME280;4395;48.554;8.820;2022-09-03T05:23:06;95574.72;;;17.77;100.00
8717;BME280;4395;48.554;8.820;2022-09-03T05:25:09;95317.09;;;16.21;100.00
8717;BME280;4395;48.554;8.820;2022-09-03T05:27:11;95570.19;;;17.73;100.00
8717;BME280;4395;48.554;8.820;2022-09-03T05:29:17;95570.69;;;17.75;100.00
8717;BME280;4395;48.554;8.820;2022-09-03T05:31:21;95486.28;;;17.08;100.00
8717;BME280;4395;48.554;8.820;2022-09-03T05:33:24;95577.56;;;17.72;100.00
8717;BME280;4395;48.554;8.820;2022-09-03T05:35:30;95577.25;;;17.74;100.00
8717;BME280;4395;48.554;8.820;2022-09-03T05:37:33;95575.31;;;17.74;100.00
8717;BME280;4395;48.554;8.820;2022-09-03T05:39:36;95571.31;;;17.72;100.00
8717;BME280;4395;48.554;8.820;2022-09-03T05:41:38;95573.53;;;17.70;100.00
8717;BME280;4395;48.554;8.820;2022-09-03T05:43:42;95577.34;;;17.68;100.00
8717;BME280;4395;48.554;8.820;2022-09-03T05:45:45;95573.22;;;17.71;100.00
8717;BME280;4395;48.554;8.820;2022-09-03T05:47:48;95585.41;;;17.74;100.00
8717;BME280;4395;48.554;8.820;2022-09-03T05:49:51;95579.34;;;17.77;100.00
8717;BME280;4395;48.554;8.820;2022-09-03T05:51:55;95577.75;;;17.76;100.00
8717;BME280;4395;48.554;8.820;2022-09-03T05:53:58;95581.47;;;17.80;100.00
8717;BME280;4395;48.554;8.820;2022-09-03T05:56:03;95581.16;;;17.81;100.00
8717;BME280;4395;48.554;8.820;2022-09-03T05:58:06;95582.16;;;17.85;100.00
8717;BME280;4395;48.554;8.820;2022-09-03T06:00:10;95585.16;;;17.84;100.00
8717;BME280;4395;48.554;8.820;2022-09-03T06:02:20;95583.19;;;17.76;100.00
8717;BME280;4395;48.554;8.820;2022-09-03T06:04:23;95582.97;;;17.72;100.00
8717;BME280;4395;48.554;8.820;2022-09-03T06:06:28;95451.09;;;16.89;100.00
8717;BME280;4395;48.554;8.820;2022-09-03T06:08:36;95586.16;;;17.88;100.00
8717;BME280;4395;48.554;8.820;2022-09-03T06:10:39;95589.88;;;17.92;100.00
8717;BME280;4395;48.554;8.820;2022-09-03T06:12:42;95579.13;;;17.87;100.00
8717;BME280;4395;48.554;8.820;2022-09-03T06:14:50;95586.16;;;17.88;100.00
8717;BME280;4395;48.554;8.820;2022-09-03T06:16:53;95593.22;;;17.89;100.00
8717;BME280;4395;48.554;8.820;2022-09-03T06:18:57;95586.59;;;17.81;100.00
8717;BME280;4395;48.554;8.820;2022-09-03T06:21:02;95589.38;;;17.90;100.00
8717;BME280;4395;48.554;8.820;2022-09-03T06:23:05;95582.34;;;17.89;100.00
8717;BME280;4395;48.554;8.820;2022-09-03T06:25:09;95587.16;;;17.92;100.00
8717;BME280;4395;48.554;8.820;2022-09-03T06:27:12;95589.78;;;17.97;100.00
8717;BME280;4395;48.554;8.820;2022-09-03T06:29:15;95589.19;;;17.86;100.00
8717;BME280;4395;48.554;8.820;2022-09-03T06:31:19;95581.91;;;17.95;100.00
8717;BME280;4395;48.554;8.820;2022-09-03T06:33:23;95587.44;;;18.04;100.00
8717;BME280;4395;48.554;8.820;2022-09-03T06:35:26;95097.13;;;14.96;100.00
8717;BME280;4395;48.554;8.820;2022-09-03T06:37:31;95582.38;;;18.11;100.00
8717;BME280;4395;48.554;8.820;2022-09-03T06:39:34;95574.22;;;18.11;100.00
8717;BME280;4395;48.554;8.820;2022-09-03T06:41:38;95572.69;;;18.19;100.00
8717;BME280;4395;48.554;8.820;2022-09-03T06:43:41;95097.66;;;15.11;100.00
8717;BME280;4395;48.554;8.820;2022-09-03T06:45:55;95574.06;;;17.94;100.00
8717;BME280;4395;48.554;8.820;2022-09-03T06:47:58;95583.91;;;18.40;100.00
8717;BME280;4395;48.554;8.820;2022-09-03T06:50:00;95585.31;;;18.37;100.00
8717;BME280;4395;48.554;8.820;2022-09-03T06:52:03;95588.84;;;18.38;100.00
8717;BME280;4395;48.554;8.820;2022-09-03T06:54:08;95578.78;;;18.38;100.00
8717;BME280;4395;48.554;8.820;2022-09-03T06:56:12;95599.09;;;18.41;100.00
8717;BME280;4395;48.554;8.820;2022-09-03T06:58:16;95505.44;;;17.88;100.00
8717;BME280;4395;48.554;8.820;2022-09-03T07:00:20;95580.94;;;18.50;100.00
8717;BME280;4395;48.554;8.820;2022-09-03T07:02:24;95575.00;;;18.48;100.00
8717;BME280;4395;48.554;8.820;2022-09-03T07:04:27;95576.22;;;18.42;100.00
8717;BME280;4395;48.554;8.820;2022-09-03T07:06:31;95575.69;;;18.53;100.00
8717;BME280;4395;48.554;8.820;2022-09-03T07:08:35;95481.22;;;18.00;100.00
8717;BME280;4395;48.554;8.820;2022-09-03T07:10:38;95413.69;;;17.72;100.00
8717;BME280;4395;48.554;8.820;2022-09-03T07:12:41;95537.75;;;18.57;100.00
8717;BME280;4395;48.554;8.820;2022-09-03T07:14:46;95581.25;;;19.02;100.00
8717;BME280;4395;48.554;8.820;2022-09-03T07:16:51;95322.09;;;16.55;100.00
8717;BME280;4395;48.554;8.820;2022-09-03T07:18:55;95253.34;;;16.74;100.00
8717;BME280;4395;48.554;8.820;2022-09-03T07:20:58;95569.63;;;19.18;100.00
8717;BME280;4395;48.554;8.820;2022-09-03T07:23:02;95331.56;;;17.30;100.00
8717;BME280;4395;48.554;8.820;2022-09-03T07:25:05;95577.66;;;19.72;100.00
8717;BME280;4395;48.554;8.820;2022-09-03T07:27:08;95568.53;;;19.76;100.00
8717;BME280;4395;48.554;8.820;2022-09-03T07:29:16;95574.16;;;19.80;100.00
8717;BME280;4395;48.554;8.820;2022-09-03T07:31:24;95577.06;;;19.92;100.00
8717;BME280;4395;48.554;8.820;2022-09-03T07:33:27;95576.59;;;19.99;100.00
8717;BME280;4395;48.554;8.820;2022-09-03T07:35:35;95512.56;;;19.62;100.00
8717;BME280;4395;48.554;8.820;2022-09-03T07:37:39;95265.69;;;18.09;100.00
8717;BME280;4395;48.554;8.820;2022-09-03T07:39:43;95213.28;;;17.46;100.00
8717;BME280;4395;48.554;8.820;2022-09-03T07:41:47;95598.25;;;20.12;100.00
8717;BME280;4395;48.554;8.820;2022-09-03T07:43:51;95597.63;;;20.33;100.00
8717;BME280;4395;48.554;8.820;2022-09-03T07:45:54;95586.38;;;20.34;100.00
8717;BME280;4395;48.554;8.820;2022-09-03T07:47:59;95593.47;;;20.52;100.00
8717;BME280;4395;48.554;8.820;2022-09-03T07:50:03;95583.81;;;20.55;100.00
8717;BME280;4395;48.554;8.820;2022-09-03T07:52:06;95589.91;;;20.61;100.00
8717;BME280;4395;48.554;8.820;2022-09-03T07:54:12;95595.38;;;20.69;100.00
8717;BME280;4395;48.554;8.820;2022-09-03T07:56:15;95600.47;;;20.79;100.00
8717;BME280;4395;48.554;8.820;2022-09-03T07:58:18;95598.38;;;21.02;100.00
8717;BME280;4395;48.554;8.820;2022-09-03T08:00:24;95597.88;;;21.09;98.83
8717;BME280;4395;48.554;8.820;2022-09-03T08:02:29;95587.59;;;21.06;99.03
8717;BME280;4395;48.554;8.820;2022-09-03T08:04:33;95602.84;;;21.15;95.98
8717;BME280;4395;48.554;8.820;2022-09-03T08:06:37;95600.44;;;21.14;95.82
8717;BME280;4395;48.554;8.820;2022-09-03T08:08:41;95604.59;;;21.20;95.56
8717;BME280;4395;48.554;8.820;2022-09-03T08:10:45;95596.56;;;21.15;96.23
8717;BME280;4395;48.554;8.820;2022-09-03T08:12:48;95597.56;;;21.02;96.32
8717;BME280;4395;48.554;8.820;2022-09-03T08:14:51;95609.16;;;20.99;97.24
8717;BME280;4395;48.554;8.820;2022-09-03T08:16:54;95601.28;;;20.80;98.83
8717;BME280;4395;48.554;8.820;2022-09-03T08:18:57;95480.16;;;20.03;97.96
8717;BME280;4395;48.554;8.820;2022-09-03T08:21:02;95597.50;;;21.19;97.72
8717;BME280;4395;48.554;8.820;2022-09-03T08:23:05;95596.06;;;21.22;96.60
8717;BME280;4395;48.554;8.820;2022-09-03T08:25:08;95425.09;;;20.27;97.01
8717;BME280;4395;48.554;8.820;2022-09-03T08:27:14;95603.53;;;21.50;95.49
8717;BME280;4395;48.554;8.820;2022-09-03T08:29:17;95607.19;;;21.55;94.75
8717;BME280;4395;48.554;8.820;2022-09-03T08:31:21;95616.22;;;21.55;94.41
8717;BME280;4395;48.554;8.820;2022-09-03T08:33:25;95620.41;;;21.53;94.51
8717;BME280;4395;48.554;8.820;2022-09-03T08:35:38;95621.16;;;21.62;93.85
8717;BME280;4395;48.554;8.820;2022-09-03T08:37:42;95355.34;;;20.09;92.70
8717;BME280;4395;48.554;8.820;2022-09-03T08:39:45;95616.69;;;21.87;92.08
8717;BME280;4395;48.554;8.820;2022-09-03T08:42:09;95618.00;;;22.10;90.23
8717;BME280;4395;48.554;8.820;2022-09-03T08:44:22;95623.03;;;22.29;88.35
8717;BME280;4395;48.554;8.820;2022-09-03T08:46:33;95625.16;;;22.44;87.62
8717;BME280;4395;48.554;8.820;2022-09-03T08:48:41;95625.84;;;22.41;87.33
8717;BME280;4395;48.554;8.820;2022-09-03T08:50:47;95645.19;;;22.57;86.44
8717;BME280;4395;48.554;8.820;2022-09-03T08:53:02;95578.56;;;22.32;84.48
8717;BME280;4395;48.554;8.820;2022-09-03T08:55:16;95633.97;;;22.70;83.98
8717;BME280;4395;48.554;8.820;2022-09-03T08:57:21;95642.09;;;22.79;83.79
8717;BME280;4395;48.554;8.820;2022-09-03T08:59:26;95259.06;;;20.46;83.20
8717;BME280;4395;48.554;8.820;2022-09-03T09:01:43;95625.81;;;22.83;82.78
8717;BME280;4395;48.554;8.820;2022-09-03T09:03:55;95239.50;;;20.44;83.02
8717;BME280;4395;48.554;8.820;2022-09-03T09:06:12;95280.09;;;20.75;81.35
8717;BME280;4395;48.554;8.820;2022-09-03T09:08:28;95636.19;;;23.10;81.07
8717;BME280;4395;48.554;8.820;2022-09-03T09:10:39;95626.72;;;23.20;80.78
8717;BME280;4395;48.554;8.820;2022-09-03T09:12:53;95633.09;;;22.58;82.21
8717;BME280;4395;48.554;8.820;2022-09-03T09:15:06;95632.50;;;22.52;85.18
8717;BME280;4395;48.554;8.820;2022-09-03T09:17:21;95616.50;;;22.96;82.40
8717;BME280;4395;48.554;8.820;2022-09-03T09:19:38;95619.56;;;23.27;80.61
8717;BME280;4395;48.554;8.820;2022-09-03T09:21:46;95618.97;;;23.55;79.25
8717;BME280;4395;48.554;8.820;2022-09-03T09:23:56;95622.75;;;23.75;77.70
8717;BME280;4395;48.554;8.820;2022-09-03T09:26:06;95622.41;;;23.64;76.42
8717;BME280;4395;48.554;8.820;2022-09-03T09:28:15;95613.13;;;23.68;76.14
8717;BME280;4395;48.554;8.820;2022-09-03T09:30:18;95623.88;;;23.73;76.21
8717;BME280;4395;48.554;8.820;2022-09-03T09:32:22;95626.63;;;23.61;75.05
8717;BME280;4395;48.554;8.820;2022-09-03T09:34:25;95629.38;;;23.28;75.98
8717;BME280;4395;48.554;8.820;2022-09-03T09:36:28;95632.25;;;22.45;82.17
8717;BME280;4395;48.554;8.820;2022-09-03T09:38:34;95639.66;;;21.65;87.80
8717;BME280;4395;48.554;8.820;2022-09-03T09:40:40;95645.22;;;22.06;87.66
8717;BME280;4395;48.554;8.820;2022-09-03T09:42:45;95643.50;;;21.64;88.55
8717;BME280;4395;48.554;8.820;2022-09-03T09:44:48;95638.28;;;21.79;88.87
8717;BME280;4395;48.554;8.820;2022-09-03T09:47:01;95644.28;;;21.35;92.03
8717;BME280;4395;48.554;8.820;2022-09-03T09:49:21;95635.91;;;21.99;88.92
8717;BME280;4395;48.554;8.820;2022-09-03T09:51:29;95645.25;;;22.48;84.48
8717;BME280;4395;48.554;8.820;2022-09-03T09:53:33;95457.78;;;21.59;81.83
8717;BME280;4395;48.554;8.820;2022-09-03T09:55:49;95636.41;;;23.05;81.00
8717;BME280;4395;48.554;8.820;2022-09-03T09:57:52;95625.66;;;23.45;78.65
8717;BME280;4395;48.554;8.820;2022-09-03T10:00:08;95610.97;;;23.74;77.13
8717;BME280;4395;48.554;8.820;2022-09-03T10:02:15;95615.03;;;24.17;74.59
8717;BME280;4395;48.554;8.820;2022-09-03T10:04:27;95461.38;;;23.64;71.44
8717;BME280;4395;48.554;8.820;2022-09-03T10:06:34;95622.13;;;24.30;70.84
8717;BME280;4395;48.554;8.820;2022-09-03T10:09:04;95625.91;;;24.13;70.97
8717;BME280;4395;48.554;8.820;2022-09-03T10:11:09;95631.88;;;23.79;73.79
8717;BME280;4395;48.554;8.820;2022-09-03T10:13:15;95634.47;;;24.24;73.02
8717;BME280;4395;48.554;8.820;2022-09-03T10:15:24;95634.44;;;24.48;70.89
8717;BME280;4395;48.554;8.820;2022-09-03T10:17:37;95628.97;;;24.48;69.02
8717;BME280;4395;48.554;8.820;2022-09-03T10:19:45;95521.31;;;23.17;69.98
8717;BME280;4395;48.554;8.820;2022-09-03T10:22:16;95610.91;;;24.23;70.95
8717;BME280;4395;48.554;8.820;2022-09-03T10:24:33;95625.03;;;24.61;69.93
8717;BME280;4395;48.554;8.820;2022-09-03T10:26:42;95622.47;;;24.68;68.48
8717;BME280;4395;48.554;8.820;2022-09-03T10:28:50;95619.13;;;24.75;67.91
8717;BME280;4395;48.554;8.820;2022-09-03T10:33:25;95626.06;;;24.57;67.86
8717;BME280;4395;48.554;8.820;2022-09-03T10:35:36;95556.53;;;23.88;68.68
8717;BME280;4395;48.554;8.820;2022-09-03T10:37:47;95624.66;;;24.11;70.69
8717;BME280;4395;48.554;8.820;2022-09-03T10:42:34;95610.69;;;24.40;69.13
8717;BME280;4395;48.554;8.820;2022-09-03T10:44:52;95617.31;;;24.39;68.76
8717;BME280;4395;48.554;8.820;2022-09-03T10:47:05;95612.75;;;24.31;68.98
8717;BME280;4395;48.554;8.820;2022-09-03T10:49:33;95614.38;;;24.08;68.92
8717;BME280;4395;48.554;8.820;2022-09-03T10:51:42;95622.41;;;23.88;70.69
8717;BME280;4395;48.554;8.820;2022-09-03T10:54:06;95614.88;;;23.28;72.03
8717;BME280;4395;48.554;8.820;2022-09-03T10:56:15;95629.72;;;23.27;73.94
8717;BME280;4395;48.554;8.820;2022-09-03T10:58:30;95506.44;;;22.16;75.49
8717;BME280;4395;48.554;8.820;2022-09-03T11:00:40;95635.03;;;22.57;86.86
8717;BME280;4395;48.554;8.820;2022-09-03T11:03:02;95643.59;;;21.76;100.00
8717;BME280;4395;48.554;8.820;2022-09-03T11:05:13;95638.00;;;21.72;100.00
8717;BME280;4395;48.554;8.820;2022-09-03T11:07:20;95642.00;;;21.75;100.00
8717;BME280;4395;48.554;8.820;2022-09-03T11:09:28;95643.78;;;21.71;100.00
8717;BME280;4395;48.554;8.820;2022-09-03T11:11:37;95636.69;;;21.40;100.00
8717;BME280;4395;48.554;8.820;2022-09-03T11:13:46;95634.16;;;21.18;100.00
8717;BME280;4395;48.554;8.820;2022-09-03T11:15:53;95482.72;;;20.26;100.00
8717;BME280;4395;48.554;8.820;2022-09-03T11:17:59;95615.22;;;21.13;100.00
8717;BME280;4395;48.554;8.820;2022-09-03T11:20:11;95632.91;;;21.07;100.00
8717;BME280;4395;48.554;8.820;2022-09-03T11:22:17;95593.59;;;20.73;100.00
8717;BME280;4395;48.554;8.820;2022-09-03T11:24:23;95626.53;;;20.68;100.00
8717;BME280;4395;48.554;8.820;2022-09-03T11:26:28;95639.03;;;20.26;100.00
8717;BME280;4395;48.554;8.820;2022-09-03T11:28:38;95663.69;;;20.04;100.00
8717;BME280;4395;48.554;8.820;2022-09-03T11:30:54;95689.50;;;19.89;100.00
8717;BME280;4395;48.554;8.820;2022-09-03T11:33:04;95676.00;;;19.13;100.00